sensor_id;sensor_type;location;lat;lon;timestamp;temperature;humidity
31967;DHT22;18496;52.042;6.812;2023-02-28T00:00:07;4.50;99.70
31967;DHT22;18496;52.042;6.812;2023-02-28T00:02:20;4.50;99.80
31967;DHT22;18496;52.042;6.812;2023-02-28T00:07:30;4.50;99.90
31967;DHT22;18496;52.042;6.812;2023-02-28T00:09:34;4.50;99.90
31967;DHT22;18496;52.042;6.812;2023-02-28T00:11:38;4.60;99.90
31967;DHT22;18496;52.042;6.812;2023-02-28T00:13:42;4.60;99.90
31967;DHT22;18496;52.042;6.812;2023-02-28T00:15:58;4.60;99.90
31967;DHT22;18496;52.042;6.812;2023-02-28T00:18:01;4.60;99.90
31967;DHT22;18496;52.042;6.812;2023-02-28T00:20:05;4.60;99.90
31967;DHT22;18496;52.042;6.812;2023-02-28T00:22:13;4.70;99.90
31967;DHT22;18496;52.042;6.812;2023-02-28T00:24:17;4.70;99.90
31967;DHT22;18496;52.042;6.812;2023-02-28T00:26:20;4.70;99.90
31967;DHT22;18496;52.042;6.812;2023-02-28T00:28:24;4.70;99.90
31967;DHT22;18496;52.042;6.812;2023-02-28T00:30:28;4.70;99.90
31967;DHT22;18496;52.042;6.812;2023-02-28T00:32:32;4.80;99.90
31967;DHT22;18496;52.042;6.812;2023-02-28T00:34:35;4.80;99.90
31967;DHT22;18496;52.042;6.812;2023-02-28T00:36:40;4.80;99.90
31967;DHT22;18496;52.042;6.812;2023-02-28T00:38:48;4.80;99.90
31967;DHT22;18496;52.042;6.812;2023-02-28T00:40:52;4.90;99.90
31967;DHT22;18496;52.042;6.812;2023-02-28T00:42:55;4.90;99.90
31967;DHT22;18496;52.042;6.812;2023-02-28T00:44:59;4.90;99.90
31967;DHT22;18496;52.042;6.812;2023-02-28T00:47:03;4.90;99.90
31967;DHT22;18496;52.042;6.812;2023-02-28T00:49:06;5.00;99.90
31967;DHT22;18496;52.042;6.812;2023-02-28T00:51:12;5.00;99.90
31967;DHT22;18496;52.042;6.812;2023-02-28T00:53:16;5.00;99.90
31967;DHT22;18496;52.042;6.812;2023-02-28T00:55:19;5.00;99.90
31967;DHT22;18496;52.042;6.812;2023-02-28T00:57:25;5.00;99.90
31967;DHT22;18496;52.042;6.812;2023-02-28T00:59:29;5.00;99.90
31967;DHT22;18496;52.042;6.812;2023-02-28T01:01:33;5.00;99.90
31967;DHT22;18496;52.042;6.812;2023-02-28T01:03:37;5.00;99.90
31967;DHT22;18496;52.042;6.812;2023-02-28T01:05:40;5.00;99.90
31967;DHT22;18496;52.042;6.812;2023-02-28T01:07:44;5.00;99.90
31967;DHT22;18496;52.042;6.812;2023-02-28T01:09:48;5.00;99.90
31967;DHT22;18496;52.042;6.812;2023-02-28T01:11:51;5.00;99.90
31967;DHT22;18496;52.042;6.812;2023-02-28T01:13:55;5.00;99.90
31967;DHT22;18496;52.042;6.812;2023-02-28T01:15:59;5.00;99.90
31967;DHT22;18496;52.042;6.812;2023-02-28T01:18:05;5.00;99.90
31967;DHT22;18496;52.042;6.812;2023-02-28T01:20:09;5.00;99.90
31967;DHT22;18496;52.042;6.812;2023-02-28T01:22:13;5.00;99.90
31967;DHT22;18496;52.042;6.812;2023-02-28T01:24:19;5.00;99.90
31967;DHT22;18496;52.042;6.812;2023-02-28T01:26:23;5.00;99.90
31967;DHT22;18496;52.042;6.812;2023-02-28T01:28:26;5.00;99.90
31967;DHT22;18496;52.042;6.812;2023-02-28T01:30:30;5.00;99.90
31967;DHT22;18496;52.042;6.812;2023-02-28T01:32:35;5.10;99.90
31967;DHT22;18496;52.042;6.812;2023-02-28T01:34:38;5.10;99.90
31967;DHT22;18496;52.042;6.812;2023-02-28T01:36:42;5.00;99.90
31967;DHT22;18496;52.042;6.812;2023-02-28T01:38:46;5.00;99.90
31967;DHT22;18496;52.042;6.812;2023-02-28T01:40:50;5.10;99.90
31967;DHT22;18496;52.042;6.812;2023-02-28T01:42:54;5.10;99.90
31967;DHT22;18496;52.042;6.812;2023-02-28T01:44:59;5.10;99.90
31967;DHT22;18496;52.042;6.812;2023-02-28T01:47:03;5.10;99.90
31967;DHT22;18496;52.042;6.812;2023-02-28T01:49:11;5.10;99.90
31967;DHT22;18496;52.042;6.812;2023-02-28T01:51:38;5.10;99.90
31967;DHT22;18496;52.042;6.812;2023-02-28T01:53:42;5.10;99.90
31967;DHT22;18496;52.042;6.812;2023-02-28T01:55:47;5.10;99.90
31967;DHT22;18496;52.042;6.812;2023-02-28T01:57:52;5.20;99.90
31967;DHT22;18496;52.042;6.812;2023-02-28T01:59:58;5.20;99.90
31967;DHT22;18496;52.042;6.812;2023-02-28T02:02:03;5.20;99.90
31967;DHT22;18496;52.042;6.812;2023-02-28T02:04:06;5.20;99.90
31967;DHT22;18496;52.042;6.812;2023-02-28T02:06:10;5.20;99.90
31967;DHT22;18496;52.042;6.812;2023-02-28T02:08:21;5.10;99.90
31967;DHT22;18496;52.042;6.812;2023-02-28T02:12:37;5.20;99.90
31967;DHT22;18496;52.042;6.812;2023-02-28T02:29:57;5.10;99.90
31967;DHT22;18496;52.042;6.812;2023-02-28T02:34:29;5.00;99.90
31967;DHT22;18496;52.042;6.812;2023-02-28T02:36:41;5.00;99.90
31967;DHT22;18496;52.042;6.812;2023-02-28T02:38:48;5.00;99.90
31967;DHT22;18496;52.042;6.812;2023-02-28T02:43:08;4.90;99.90
31967;DHT22;18496;52.042;6.812;2023-02-28T02:45:38;5.00;99.90
31967;DHT22;18496;52.042;6.812;2023-02-28T02:47:39;5.00;99.90
31967;DHT22;18496;52.042;6.812;2023-02-28T02:49:45;5.00;99.90
31967;DHT22;18496;52.042;6.812;2023-02-28T02:51:50;5.00;99.90
31967;DHT22;18496;52.042;6.812;2023-02-28T02:54:00;5.00;99.90
31967;DHT22;18496;52.042;6.812;2023-02-28T02:56:05;5.00;99.90
31967;DHT22;18496;52.042;6.812;2023-02-28T02:58:16;5.00;99.90
31967;DHT22;18496;52.042;6.812;2023-02-28T03:00:23;5.00;99.90
31967;DHT22;18496;52.042;6.812;2023-02-28T03:02:28;5.00;99.90
31967;DHT22;18496;52.042;6.812;2023-02-28T03:04:45;5.00;99.90
31967;DHT22;18496;52.042;6.812;2023-02-28T03:06:50;5.00;99.90
31967;DHT22;18496;52.042;6.812;2023-02-28T03:08:59;5.00;99.90
31967;DHT22;18496;52.042;6.812;2023-02-28T03:11:05;5.00;99.90
31967;DHT22;18496;52.042;6.812;2023-02-28T03:18:08;5.00;99.90
31967;DHT22;18496;52.042;6.812;2023-02-28T03:24:28;4.90;99.90
31967;DHT22;18496;52.042;6.812;2023-02-28T03:26:34;4.90;99.90
31967;DHT22;18496;52.042;6.812;2023-02-28T03:28:47;4.90;99.90
31967;DHT22;18496;52.042;6.812;2023-02-28T03:30:55;5.00;99.90
31967;DHT22;18496;52.042;6.812;2023-02-28T03:33:12;4.90;99.90
31967;DHT22;18496;52.042;6.812;2023-02-28T03:35:23;4.90;99.90
31967;DHT22;18496;52.042;6.812;2023-02-28T03:37:28;4.90;99.90
31967;DHT22;18496;52.042;6.812;2023-02-28T03:39:40;4.90;99.90
31967;DHT22;18496;52.042;6.812;2023-02-28T03:41:48;4.90;99.90
31967;DHT22;18496;52.042;6.812;2023-02-28T03:43:58;4.90;99.90
31967;DHT22;18496;52.042;6.812;2023-02-28T03:46:04;4.90;99.90
31967;DHT22;18496;52.042;6.812;2023-02-28T03:48:14;4.90;99.90
31967;DHT22;18496;52.042;6.812;2023-02-28T03:52:27;4.90;99.90
31967;DHT22;18496;52.042;6.812;2023-02-28T03:54:33;4.90;99.90
31967;DHT22;18496;52.042;6.812;2023-02-28T03:56:39;5.00;99.90
31967;DHT22;18496;52.042;6.812;2023-02-28T04:00:57;5.00;99.90
31967;DHT22;18496;52.042;6.812;2023-02-28T04:03:02;5.00;99.90
31967;DHT22;18496;52.042;6.812;2023-02-28T04:05:06;5.00;99.90
31967;DHT22;18496;52.042;6.812;2023-02-28T04:07:10;5.00;99.90
31967;DHT22;18496;52.042;6.812;2023-02-28T04:09:14;5.00;99.90
31967;DHT22;18496;52.042;6.812;2023-02-28T04:11:37;5.00;99.90
31967;DHT22;18496;52.042;6.812;2023-02-28T04:13:41;5.00;99.90
31967;DHT22;18496;52.042;6.812;2023-02-28T04:15:44;5.00;99.90
31967;DHT22;18496;52.042;6.812;2023-02-28T04:17:48;5.00;99.90
31967;DHT22;18496;52.042;6.812;2023-02-28T04:19:51;5.00;99.90
31967;DHT22;18496;52.042;6.812;2023-02-28T04:21:55;5.10;99.90
31967;DHT22;18496;52.042;6.812;2023-02-28T04:23:58;5.10;99.90
31967;DHT22;18496;52.042;6.812;2023-02-28T04:26:04;5.10;99.90
31967;DHT22;18496;52.042;6.812;2023-02-28T04:28:08;5.10;99.90
31967;DHT22;18496;52.042;6.812;2023-02-28T04:30:13;5.10;99.90
31967;DHT22;18496;52.042;6.812;2023-02-28T04:32:16;5.10;99.90
31967;DHT22;18496;52.042;6.812;2023-02-28T04:34:20;5.10;99.90
31967;DHT22;18496;52.042;6.812;2023-02-28T04:36:24;5.10;99.90
31967;DHT22;18496;52.042;6.812;2023-02-28T04:38:28;5.00;99.90
31967;DHT22;18496;52.042;6.812;2023-02-28T04:40:32;5.00;99.90
31967;DHT22;18496;52.042;6.812;2023-02-28T04:42:36;5.00;99.90
31967;DHT22;18496;52.042;6.812;2023-02-28T04:44:39;5.00;99.90
31967;DHT22;18496;52.042;6.812;2023-02-28T04:46:43;5.00;99.90
31967;DHT22;18496;52.042;6.812;2023-02-28T04:48:46;5.00;99.90
31967;DHT22;18496;52.042;6.812;2023-02-28T04:50:50;5.00;99.90
31967;DHT22;18496;52.042;6.812;2023-02-28T04:52:54;5.00;99.90
31967;DHT22;18496;52.042;6.812;2023-02-28T04:54:57;5.00;99.90
31967;DHT22;18496;52.042;6.812;2023-02-28T04:57:01;5.00;99.90
31967;DHT22;18496;52.042;6.812;2023-02-28T04:59:05;5.00;99.90
31967;DHT22;18496;52.042;6.812;2023-02-28T05:01:44;5.00;99.90
31967;DHT22;18496;52.042;6.812;2023-02-28T05:03:39;4.90;99.90
31967;DHT22;18496;52.042;6.812;2023-02-28T05:05:46;4.90;99.90
31967;DHT22;18496;52.042;6.812;2023-02-28T05:07:49;4.90;99.90
31967;DHT22;18496;52.042;6.812;2023-02-28T05:09:53;4.90;99.90
31967;DHT22;18496;52.042;6.812;2023-02-28T05:11:56;4.90;99.90
31967;DHT22;18496;52.042;6.812;2023-02-28T05:14:01;4.90;99.90
31967;DHT22;18496;52.042;6.812;2023-02-28T05:16:05;4.90;99.90
31967;DHT22;18496;52.042;6.812;2023-02-28T05:18:09;4.80;99.90
31967;DHT22;18496;52.042;6.812;2023-02-28T05:20:13;4.90;99.90
31967;DHT22;18496;52.042;6.812;2023-02-28T05:22:19;4.80;99.90
31967;DHT22;18496;52.042;6.812;2023-02-28T05:24:23;4.80;99.90
31967;DHT22;18496;52.042;6.812;2023-02-28T05:26:27;4.80;99.90
31967;DHT22;18496;52.042;6.812;2023-02-28T05:28:31;4.80;99.90
31967;DHT22;18496;52.042;6.812;2023-02-28T05:30:34;4.80;99.90
31967;DHT22;18496;52.042;6.812;2023-02-28T05:32:38;4.70;99.90
31967;DHT22;18496;52.042;6.812;2023-02-28T05:34:42;4.70;99.90
31967;DHT22;18496;52.042;6.812;2023-02-28T05:36:45;4.70;99.90
31967;DHT22;18496;52.042;6.812;2023-02-28T05:38:49;4.60;99.90
31967;DHT22;18496;52.042;6.812;2023-02-28T05:40:53;4.60;99.90
31967;DHT22;18496;52.042;6.812;2023-02-28T05:42:57;4.60;99.90
31967;DHT22;18496;52.042;6.812;2023-02-28T05:45:00;4.60;99.90
31967;DHT22;18496;52.042;6.812;2023-02-28T05:47:04;4.60;99.90
31967;DHT22;18496;52.042;6.812;2023-02-28T05:49:07;4.60;99.90
31967;DHT22;18496;52.042;6.812;2023-02-28T05:51:11;4.60;99.90
31967;DHT22;18496;52.042;6.812;2023-02-28T05:53:14;4.60;99.90
31967;DHT22;18496;52.042;6.812;2023-02-28T05:55:18;4.60;99.90
31967;DHT22;18496;52.042;6.812;2023-02-28T05:57:22;4.60;99.90
31967;DHT22;18496;52.042;6.812;2023-02-28T05:59:26;4.60;99.90
31967;DHT22;18496;52.042;6.812;2023-02-28T06:03:36;4.70;99.90
31967;DHT22;18496;52.042;6.812;2023-02-28T06:05:39;4.70;99.90
31967;DHT22;18496;52.042;6.812;2023-02-28T06:07:43;4.70;99.90
31967;DHT22;18496;52.042;6.812;2023-02-28T06:09:47;4.70;99.90
31967;DHT22;18496;52.042;6.812;2023-02-28T06:11:50;4.70;99.90
31967;DHT22;18496;52.042;6.812;2023-02-28T06:13:54;4.60;99.90
31967;DHT22;18496;52.042;6.812;2023-02-28T06:16:02;4.60;99.90
31967;DHT22;18496;52.042;6.812;2023-02-28T06:18:05;4.60;99.90
31967;DHT22;18496;52.042;6.812;2023-02-28T06:20:09;4.60;99.90
31967;DHT22;18496;52.042;6.812;2023-02-28T06:22:13;4.60;99.90
31967;DHT22;18496;52.042;6.812;2023-02-28T06:24:17;4.50;99.90
31967;DHT22;18496;52.042;6.812;2023-02-28T06:26:21;4.50;99.90
31967;DHT22;18496;52.042;6.812;2023-02-28T06:28:25;4.40;99.90
31967;DHT22;18496;52.042;6.812;2023-02-28T06:30:28;4.40;99.90
31967;DHT22;18496;52.042;6.812;2023-02-28T06:32:33;4.40;99.90
31967;DHT22;18496;52.042;6.812;2023-02-28T06:34:36;4.30;99.90
31967;DHT22;18496;52.042;6.812;2023-02-28T06:36:40;4.30;99.90
31967;DHT22;18496;52.042;6.812;2023-02-28T06:38:44;4.30;99.90
31967;DHT22;18496;52.042;6.812;2023-02-28T06:40:57;4.30;99.90
31967;DHT22;18496;52.042;6.812;2023-02-28T06:43:00;4.30;99.90
31967;DHT22;18496;52.042;6.812;2023-02-28T06:45:04;4.20;99.90
31967;DHT22;18496;52.042;6.812;2023-02-28T06:47:12;4.20;99.90
31967;DHT22;18496;52.042;6.812;2023-02-28T06:49:15;4.20;99.90
31967;DHT22;18496;52.042;6.812;2023-02-28T06:51:20;4.20;99.90
31967;DHT22;18496;52.042;6.812;2023-02-28T06:53:25;4.20;99.90
31967;DHT22;18496;52.042;6.812;2023-02-28T06:55:28;4.10;99.90
31967;DHT22;18496;52.042;6.812;2023-02-28T06:57:32;4.10;99.90
31967;DHT22;18496;52.042;6.812;2023-02-28T06:59:36;4.10;99.90
31967;DHT22;18496;52.042;6.812;2023-02-28T07:01:40;4.10;99.90
31967;DHT22;18496;52.042;6.812;2023-02-28T07:03:44;4.10;99.90
31967;DHT22;18496;52.042;6.812;2023-02-28T07:05:48;4.10;99.90
31967;DHT22;18496;52.042;6.812;2023-02-28T07:07:51;4.10;99.90
31967;DHT22;18496;52.042;6.812;2023-02-28T07:09:56;4.10;99.90
31967;DHT22;18496;52.042;6.812;2023-02-28T07:11:59;4.10;99.90
31967;DHT22;18496;52.042;6.812;2023-02-28T07:14:03;4.10;99.90
31967;DHT22;18496;52.042;6.812;2023-02-28T07:16:09;4.10;99.90
31967;DHT22;18496;52.042;6.812;2023-02-28T07:18:13;4.10;99.90
31967;DHT22;18496;52.042;6.812;2023-02-28T07:20:17;4.20;99.90
31967;DHT22;18496;52.042;6.812;2023-02-28T07:22:20;4.10;99.90
31967;DHT22;18496;52.042;6.812;2023-02-28T07:24:24;4.10;99.90
31967;DHT22;18496;52.042;6.812;2023-02-28T07:26:31;4.10;99.90
31967;DHT22;18496;52.042;6.812;2023-02-28T07:28:37;4.10;99.90
31967;DHT22;18496;52.042;6.812;2023-02-28T07:30:41;4.10;99.90
31967;DHT22;18496;52.042;6.812;2023-02-28T07:32:45;4.10;99.90
31967;DHT22;18496;52.042;6.812;2023-02-28T07:34:48;4.20;99.90
31967;DHT22;18496;52.042;6.812;2023-02-28T07:36:53;4.20;99.90
31967;DHT22;18496;52.042;6.812;2023-02-28T07:38:57;4.30;99.90
31967;DHT22;18496;52.042;6.812;2023-02-28T07:41:01;4.30;99.90
31967;DHT22;18496;52.042;6.812;2023-02-28T07:43:07;4.40;99.90
31967;DHT22;18496;52.042;6.812;2023-02-28T07:45:11;4.40;99.90
31967;DHT22;18496;52.042;6.812;2023-02-28T07:47:14;4.50;99.90
31967;DHT22;18496;52.042;6.812;2023-02-28T07:49:18;4.60;99.90
31967;DHT22;18496;52.042;6.812;2023-02-28T07:51:22;4.60;99.90
31967;DHT22;18496;52.042;6.812;2023-02-28T07:53:26;4.60;99.90
31967;DHT22;18496;52.042;6.812;2023-02-28T07:55:29;4.70;99.90
31967;DHT22;18496;52.042;6.812;2023-02-28T07:57:33;4.70;99.90
31967;DHT22;18496;52.042;6.812;2023-02-28T07:59:36;4.80;99.90
31967;DHT22;18496;52.042;6.812;2023-02-28T08:01:40;4.80;99.90
31967;DHT22;18496;52.042;6.812;2023-02-28T08:03:44;4.90;99.90
31967;DHT22;18496;52.042;6.812;2023-02-28T08:05:47;4.90;99.90
31967;DHT22;18496;52.042;6.812;2023-02-28T08:07:51;5.00;99.90
31967;DHT22;18496;52.042;6.812;2023-02-28T08:09:55;5.10;99.90
31967;DHT22;18496;52.042;6.812;2023-02-28T08:11:58;5.10;99.90
31967;DHT22;18496;52.042;6.812;2023-02-28T08:14:02;5.10;99.90
31967;DHT22;18496;52.042;6.812;2023-02-28T08:16:05;5.10;99.60
31967;DHT22;18496;52.042;6.812;2023-02-28T08:18:09;5.20;99.60
31967;DHT22;18496;52.042;6.812;2023-02-28T08:20:13;5.20;99.30
31967;DHT22;18496;52.042;6.812;2023-02-28T08:22:16;5.30;98.50
31967;DHT22;18496;52.042;6.812;2023-02-28T08:24:20;5.30;98.80
31967;DHT22;18496;52.042;6.812;2023-02-28T08:26:23;5.30;98.10
31967;DHT22;18496;52.042;6.812;2023-02-28T08:28:27;5.40;98.20
31967;DHT22;18496;52.042;6.812;2023-02-28T08:30:30;5.40;97.90
31967;DHT22;18496;52.042;6.812;2023-02-28T08:32:34;5.40;97.90
31967;DHT22;18496;52.042;6.812;2023-02-28T08:34:38;5.40;97.30
31967;DHT22;18496;52.042;6.812;2023-02-28T08:36:42;5.40;96.40
31967;DHT22;18496;52.042;6.812;2023-02-28T08:38:48;5.50;95.00
31967;DHT22;18496;52.042;6.812;2023-02-28T08:41:01;5.40;96.10
31967;DHT22;18496;52.042;6.812;2023-02-28T08:43:06;5.50;95.50
31967;DHT22;18496;52.042;6.812;2023-02-28T08:45:09;5.50;95.60
31967;DHT22;18496;52.042;6.812;2023-02-28T08:47:13;5.60;95.50
31967;DHT22;18496;52.042;6.812;2023-02-28T08:49:16;5.60;94.80
31967;DHT22;18496;52.042;6.812;2023-02-28T08:51:20;5.70;94.40
31967;DHT22;18496;52.042;6.812;2023-02-28T08:53:29;5.70;93.00
31967;DHT22;18496;52.042;6.812;2023-02-28T08:55:33;5.70;93.80
31967;DHT22;18496;52.042;6.812;2023-02-28T08:57:36;5.70;93.90
31967;DHT22;18496;52.042;6.812;2023-02-28T08:59:40;5.70;94.40
31967;DHT22;18496;52.042;6.812;2023-02-28T09:01:44;5.80;93.60
31967;DHT22;18496;52.042;6.812;2023-02-28T09:03:48;5.80;92.70
31967;DHT22;18496;52.042;6.812;2023-02-28T09:05:56;5.80;92.60
31967;DHT22;18496;52.042;6.812;2023-02-28T09:07:59;5.90;93.10
31967;DHT22;18496;52.042;6.812;2023-02-28T09:10:03;5.90;92.30
31967;DHT22;18496;52.042;6.812;2023-02-28T09:12:07;5.90;91.60
31967;DHT22;18496;52.042;6.812;2023-02-28T09:14:10;6.00;91.40
31967;DHT22;18496;52.042;6.812;2023-02-28T09:16:14;6.00;91.70
31967;DHT22;18496;52.042;6.812;2023-02-28T09:18:18;6.00;91.30
31967;DHT22;18496;52.042;6.812;2023-02-28T09:20:22;6.00;92.00
31967;DHT22;18496;52.042;6.812;2023-02-28T09:22:25;6.00;91.80
31967;DHT22;18496;52.042;6.812;2023-02-28T09:24:29;6.00;91.30
31967;DHT22;18496;52.042;6.812;2023-02-28T09:26:34;6.10;91.10
31967;DHT22;18496;52.042;6.812;2023-02-28T09:28:38;6.10;91.60
31967;DHT22;18496;52.042;6.812;2023-02-28T09:30:42;6.20;91.10
31967;DHT22;18496;52.042;6.812;2023-02-28T09:32:46;6.20;90.90
31967;DHT22;18496;52.042;6.812;2023-02-28T09:34:55;6.20;89.70
31967;DHT22;18496;52.042;6.812;2023-02-28T09:36:58;6.30;90.60
31967;DHT22;18496;52.042;6.812;2023-02-28T09:39:02;6.30;89.40
31967;DHT22;18496;52.042;6.812;2023-02-28T09:41:11;6.40;88.00
31967;DHT22;18496;52.042;6.812;2023-02-28T09:43:16;6.40;86.70
31967;DHT22;18496;52.042;6.812;2023-02-28T09:49:38;6.50;87.00
31967;DHT22;18496;52.042;6.812;2023-02-28T09:51:48;6.50;86.90
31967;DHT22;18496;52.042;6.812;2023-02-28T09:53:54;6.60;84.80
31967;DHT22;18496;52.042;6.812;2023-02-28T09:55:58;6.60;87.90
31967;DHT22;18496;52.042;6.812;2023-02-28T09:58:02;6.70;87.10
31967;DHT22;18496;52.042;6.812;2023-02-28T10:06:29;6.80;80.30
31967;DHT22;18496;52.042;6.812;2023-02-28T10:08:40;6.80;84.70
31967;DHT22;18496;52.042;6.812;2023-02-28T10:10:49;6.90;84.00
31967;DHT22;18496;52.042;6.812;2023-02-28T10:12:55;6.90;80.60
31967;DHT22;18496;52.042;6.812;2023-02-28T10:14:59;7.00;81.40
31967;DHT22;18496;52.042;6.812;2023-02-28T10:17:10;7.00;82.40
31967;DHT22;18496;52.042;6.812;2023-02-28T10:19:20;7.10;81.40
31967;DHT22;18496;52.042;6.812;2023-02-28T10:21:32;7.10;81.50
31967;DHT22;18496;52.042;6.812;2023-02-28T10:23:37;7.20;84.30
31967;DHT22;18496;52.042;6.812;2023-02-28T10:25:40;7.20;81.90
31967;DHT22;18496;52.042;6.812;2023-02-28T10:27:46;7.20;79.70
31967;DHT22;18496;52.042;6.812;2023-02-28T10:29:50;7.30;81.90
31967;DHT22;18496;52.042;6.812;2023-02-28T10:31:54;7.30;80.00
31967;DHT22;18496;52.042;6.812;2023-02-28T10:33:57;7.40;78.50
31967;DHT22;18496;52.042;6.812;2023-02-28T10:36:02;7.40;80.60
31967;DHT22;18496;52.042;6.812;2023-02-28T10:38:10;7.50;80.70
31967;DHT22;18496;52.042;6.812;2023-02-28T10:42:26;7.60;83.70
31967;DHT22;18496;52.042;6.812;2023-02-28T10:44:29;7.60;77.60
31967;DHT22;18496;52.042;6.812;2023-02-28T10:46:33;7.60;80.10
31967;DHT22;18496;52.042;6.812;2023-02-28T10:48:38;7.70;78.00
31967;DHT22;18496;52.042;6.812;2023-02-28T10:53:05;7.70;75.70
31967;DHT22;18496;52.042;6.812;2023-02-28T10:57:24;7.90;80.90
31967;DHT22;18496;52.042;6.812;2023-02-28T10:59:29;7.90;76.80
31967;DHT22;18496;52.042;6.812;2023-02-28T11:03:42;8.00;76.90
31967;DHT22;18496;52.042;6.812;2023-02-28T11:05:46;8.10;78.00
31967;DHT22;18496;52.042;6.812;2023-02-28T11:07:59;8.10;76.90
31967;DHT22;18496;52.042;6.812;2023-02-28T11:10:05;8.20;74.80
31967;DHT22;18496;52.042;6.812;2023-02-28T11:12:19;8.20;78.80
31967;DHT22;18496;52.042;6.812;2023-02-28T11:14:25;8.30;75.00
31967;DHT22;18496;52.042;6.812;2023-02-28T11:16:33;8.30;72.30
31967;DHT22;18496;52.042;6.812;2023-02-28T11:18:47;8.40;75.20
31967;DHT22;18496;52.042;6.812;2023-02-28T11:20:52;8.50;73.60
31967;DHT22;18496;52.042;6.812;2023-02-28T11:22:57;8.60;71.80
31967;DHT22;18496;52.042;6.812;2023-02-28T11:25:02;8.60;73.30
31967;DHT22;18496;52.042;6.812;2023-02-28T11:29:29;8.80;72.90
31967;DHT22;18496;52.042;6.812;2023-02-28T11:31:33;8.80;72.30
31967;DHT22;18496;52.042;6.812;2023-02-28T11:33:47;8.80;71.30
31967;DHT22;18496;52.042;6.812;2023-02-28T11:35:53;8.90;70.50
31967;DHT22;18496;52.042;6.812;2023-02-28T11:38:01;8.90;70.80
31967;DHT22;18496;52.042;6.812;2023-02-28T11:40:08;8.90;70.30
31967;DHT22;18496;52.042;6.812;2023-02-28T11:44:32;8.90;69.60
31967;DHT22;18496;52.042;6.812;2023-02-28T11:46:44;8.90;70.40
31967;DHT22;18496;52.042;6.812;2023-02-28T11:51:11;9.10;72.70
31967;DHT22;18496;52.042;6.812;2023-02-28T11:55:36;9.20;70.80
31967;DHT22;18496;52.042;6.812;2023-02-28T12:06:37;9.40;69.20
31967;DHT22;18496;52.042;6.812;2023-02-28T12:08:48;9.40;71.50
31967;DHT22;18496;52.042;6.812;2023-02-28T12:13:21;9.60;68.30
31967;DHT22;18496;52.042;6.812;2023-02-28T12:28:44;9.90;70.60
31967;DHT22;18496;52.042;6.812;2023-02-28T12:30:57;10.00;70.60
31967;DHT22;18496;52.042;6.812;2023-02-28T12:33:09;10.10;70.50
31967;DHT22;18496;52.042;6.812;2023-02-28T12:35:15;10.10;70.90
31967;DHT22;18496;52.042;6.812;2023-02-28T12:37:22;10.20;69.10
31967;DHT22;18496;52.042;6.812;2023-02-28T12:39:31;10.30;68.90
31967;DHT22;18496;52.042;6.812;2023-02-28T12:41:41;10.30;66.20
31967;DHT22;18496;52.042;6.812;2023-02-28T12:43:46;10.40;69.00
31967;DHT22;18496;52.042;6.812;2023-02-28T12:45:55;10.40;66.70
31967;DHT22;18496;52.042;6.812;2023-02-28T12:48:00;10.50;68.50
31967;DHT22;18496;52.042;6.812;2023-02-28T12:50:08;10.60;64.90
31967;DHT22;18496;52.042;6.812;2023-02-28T12:52:15;10.60;65.70
31967;DHT22;18496;52.042;6.812;2023-02-28T12:54:23;10.70;66.90
31967;DHT22;18496;52.042;6.812;2023-02-28T12:58:34;10.80;64.70
31967;DHT22;18496;52.042;6.812;2023-02-28T13:00:45;10.80;62.70
31967;DHT22;18496;52.042;6.812;2023-02-28T13:09:34;11.00;62.20
31967;DHT22;18496;52.042;6.812;2023-02-28T13:11:51;11.10;65.60
31967;DHT22;18496;52.042;6.812;2023-02-28T13:13:58;11.10;62.60
31967;DHT22;18496;52.042;6.812;2023-02-28T13:16:06;11.20;61.60
31967;DHT22;18496;52.042;6.812;2023-02-28T13:18:26;11.20;68.00
31967;DHT22;18496;52.042;6.812;2023-02-28T13:20:34;11.20;64.70
31967;DHT22;18496;52.042;6.812;2023-02-28T13:22:42;11.30;65.00
31967;DHT22;18496;52.042;6.812;2023-02-28T13:35:35;11.50;62.10
31967;DHT22;18496;52.042;6.812;2023-02-28T13:37:42;11.50;62.00
31967;DHT22;18496;52.042;6.812;2023-02-28T13:41:53;11.60;64.50
31967;DHT22;18496;52.042;6.812;2023-02-28T13:46:11;11.60;65.70
31967;DHT22;18496;52.042;6.812;2023-02-28T13:48:19;11.70;64.70
31967;DHT22;18496;52.042;6.812;2023-02-28T13:52:29;11.70;60.90
31967;DHT22;18496;52.042;6.812;2023-02-28T13:54:50;11.70;63.80
31967;DHT22;18496;52.042;6.812;2023-02-28T13:59:34;11.70;61.10
31967;DHT22;18496;52.042;6.812;2023-02-28T14:08:22;11.90;59.80
31967;DHT22;18496;52.042;6.812;2023-02-28T14:10:30;12.00;60.90
31967;DHT22;18496;52.042;6.812;2023-02-28T14:15:04;12.10;60.50
31967;DHT22;18496;52.042;6.812;2023-02-28T14:17:12;12.20;60.80
31967;DHT22;18496;52.042;6.812;2023-02-28T14:19:24;12.20;60.90
31967;DHT22;18496;52.042;6.812;2023-02-28T14:21:35;12.30;65.20
31967;DHT22;18496;52.042;6.812;2023-02-28T14:26:10;12.40;63.50
31967;DHT22;18496;52.042;6.812;2023-02-28T14:33:13;12.50;57.70
31967;DHT22;18496;52.042;6.812;2023-02-28T14:39:34;12.60;56.70
31967;DHT22;18496;52.042;6.812;2023-02-28T14:41:40;12.70;59.60
31967;DHT22;18496;52.042;6.812;2023-02-28T14:43:52;12.70;58.90
31967;DHT22;18496;52.042;6.812;2023-02-28T14:46:00;12.70;64.00
31967;DHT22;18496;52.042;6.812;2023-02-28T14:48:05;12.80;58.60
31967;DHT22;18496;52.042;6.812;2023-02-28T14:50:19;12.80;57.60
31967;DHT22;18496;52.042;6.812;2023-02-28T14:52:24;12.80;54.70
31967;DHT22;18496;52.042;6.812;2023-02-28T14:54:28;12.80;56.70
31967;DHT22;18496;52.042;6.812;2023-02-28T14:56:36;12.80;55.20
31967;DHT22;18496;52.042;6.812;2023-02-28T14:58:40;12.80;54.80
31967;DHT22;18496;52.042;6.812;2023-02-28T15:00:48;12.80;56.60
31967;DHT22;18496;52.042;6.812;2023-02-28T15:02:52;12.80;55.20
31967;DHT22;18496;52.042;6.812;2023-02-28T15:05:00;12.80;55.80
31967;DHT22;18496;52.042;6.812;2023-02-28T15:07:14;12.90;55.30
31967;DHT22;18496;52.042;6.812;2023-02-28T15:09:20;12.90;57.40
31967;DHT22;18496;52.042;6.812;2023-02-28T15:11:24;13.00;56.50
31967;DHT22;18496;52.042;6.812;2023-02-28T15:13:38;13.00;56.80
31967;DHT22;18496;52.042;6.812;2023-02-28T15:15:54;13.10;55.90
31967;DHT22;18496;52.042;6.812;2023-02-28T15:18:01;13.10;55.60
31967;DHT22;18496;52.042;6.812;2023-02-28T15:20:10;13.20;54.50
31967;DHT22;18496;52.042;6.812;2023-02-28T15:22:15;13.20;53.10
31967;DHT22;18496;52.042;6.812;2023-02-28T15:26:29;13.20;55.40
31967;DHT22;18496;52.042;6.812;2023-02-28T15:28:33;13.20;53.00
31967;DHT22;18496;52.042;6.812;2023-02-28T15:30:37;13.30;52.40
31967;DHT22;18496;52.042;6.812;2023-02-28T15:32:40;13.30;56.60
31967;DHT22;18496;52.042;6.812;2023-02-28T15:34:44;13.30;52.60
31967;DHT22;18496;52.042;6.812;2023-02-28T15:36:48;13.30;52.70
31967;DHT22;18496;52.042;6.812;2023-02-28T15:38:51;13.40;53.20
31967;DHT22;18496;52.042;6.812;2023-02-28T15:40:56;13.40;54.60
31967;DHT22;18496;52.042;6.812;2023-02-28T15:45:25;13.50;52.20
31967;DHT22;18496;52.042;6.812;2023-02-28T15:47:29;13.50;51.90
31967;DHT22;18496;52.042;6.812;2023-02-28T15:49:39;13.60;54.70
31967;DHT22;18496;52.042;6.812;2023-02-28T15:51:43;13.60;51.70